createdAt,value
2022-10-02T00:01:54.773Z,98291.09
2022-10-02T00:07:03.215Z,98280.97
2022-10-02T00:12:08.772Z,98288.72
2022-10-02T00:17:29.558Z,98303.47
2022-10-02T00:22:46.257Z,98285.56
2022-10-02T00:28:07.776Z,98282.50
2022-10-02T00:33:34.529Z,98288.06
2022-10-02T00:38:58.961Z,98303.72
2022-10-02T00:44:04.323Z,98305.53
2022-10-02T00:49:12.776Z,98288.63
2022-10-02T00:54:52.302Z,98301.63
2022-10-02T01:00:07.505Z,98305.53
2022-10-02T01:05:10.655Z,98314.41
2022-10-02T01:10:15.130Z,98316.59
2022-10-02T01:15:21.798Z,98312.56
2022-10-02T01:20:34.311Z,98310.94
2022-10-02T01:25:37.099Z,98313.16
2022-10-02T01:30:43.128Z,98307.34
2022-10-02T01:35:49.113Z,98308.56
2022-10-02T01:40:51.877Z,98318.72
2022-10-02T01:46:00.822Z,98301.53
2022-10-02T01:51:40.724Z,98311.59
2022-10-02T01:56:55.542Z,98325.81
2022-10-02T02:02:18.968Z,98332.88
2022-10-02T02:07:39.723Z,98313.66
2022-10-02T02:12:54.176Z,98318.72
2022-10-02T02:18:10.868Z,98330.41
2022-10-02T02:23:20.084Z,98328.94
2022-10-02T02:28:24.889Z,98323.50
2022-10-02T02:33:36.195Z,98335.16
2022-10-02T02:38:46.191Z,98325.81
2022-10-02T02:44:03.895Z,98323.72
2022-10-02T02:49:11.459Z,98320.13
2022-10-02T02:54:25.920Z,98320.47
2022-10-02T02:59:31.414Z,98322.75
2022-10-02T03:04:33.778Z,98331.44
2022-10-02T03:09:37.907Z,98340.38
2022-10-02T03:15:08.349Z,98348.09
2022-10-02T03:20:50.048Z,98340.78
2022-10-02T03:26:04.899Z,98335.31
2022-10-02T03:31:10.365Z,98337.19
2022-10-02T03:36:17.885Z,98330.28
2022-10-02T03:41:20.220Z,98336.50
2022-10-02T03:46:22.653Z,98331.56
2022-10-02T03:51:25.222Z,98315.75
2022-10-02T03:56:30.687Z,98322.38
2022-10-02T04:01:37.757Z,98326.66
2022-10-02T04:06:51.598Z,98325.81
2022-10-02T04:11:59.556Z,98328.09
2022-10-02T04:17:16.780Z,98333.19
2022-10-02T04:22:30.871Z,98337.81
2022-10-02T04:27:45.383Z,98341.97
2022-10-02T04:32:48.094Z,98330.19
2022-10-02T04:38:27.503Z,98335.56
2022-10-02T04:43:52.568Z,98335.31
2022-10-02T04:49:12.307Z,98344.19
2022-10-02T04:54:17.431Z,98339.59
2022-10-02T04:59:22.579Z,98327.13
2022-10-02T05:04:52.034Z,98339.78
2022-10-02T05:10:05.456Z,98333.13
2022-10-02T05:15:26.539Z,98328.09
2022-10-02T05:20:57.754Z,98319.25
2022-10-02T05:26:14.648Z,98324.34
2022-10-02T05:31:46.174Z,98323.94
2022-10-02T05:37:13.161Z,98332.59
2022-10-02T05:42:31.155Z,98334.56
2022-10-02T05:47:42.749Z,98338.25
2022-10-02T05:53:01.032Z,98331.81
2022-10-02T05:58:11.499Z,98338.34
2022-10-02T06:03:17.483Z,98356.22
2022-10-02T06:08:29.870Z,98358.28
2022-10-02T06:13:56.702Z,98354.53
2022-10-02T06:19:07.544Z,98351.06
2022-10-02T06:24:20.444Z,98347.44
2022-10-02T06:29:29.795Z,98345.44
2022-10-02T06:34:32.197Z,98327.03
2022-10-02T06:39:55.764Z,98317.38
2022-10-02T06:45:15.966Z,98303.00
2022-10-02T06:50:28.324Z,98285.09
2022-10-02T06:55:43.807Z,98290.88
2022-10-02T07:01:02.946Z,98305.38
2022-10-02T07:06:36.013Z,98313.53
2022-10-02T07:11:59.955Z,98298.31
2022-10-02T07:17:18.335Z,98295.09
2022-10-02T07:22:46.252Z,98267.31
2022-10-02T07:28:39.801Z,98276.72
2022-10-02T07:34:14.272Z,98273.63
2022-10-02T07:39:22.573Z,98265.56
2022-10-02T07:44:51.743Z,98272.19
2022-10-02T07:50:18.271Z,98280.81
2022-10-02T07:55:23.572Z,98262.97
2022-10-02T08:00:30.152Z,98281.25
2022-10-02T08:05:52.276Z,98271.44
2022-10-02T08:11:18.432Z,98276.22
2022-10-02T08:16:24.665Z,98281.75
2022-10-02T08:21:28.135Z,98286.72
2022-10-02T08:26:55.336Z,98267.25
2022-10-02T08:31:57.739Z,98259.78
2022-10-02T08:37:18.198Z,98266.97
2022-10-02T08:43:14.027Z,98260.50
2022-10-02T08:48:22.634Z,98241.97
2022-10-02T08:53:34.539Z,98238.69
2022-10-02T08:59:12.115Z,98241.09
2022-10-02T09:04:38.192Z,98234.56
2022-10-02T09:09:45.913Z,98221.66
2022-10-02T09:14:59.007Z,98219.69
2022-10-02T09:20:26.011Z,98212.75
2022-10-02T09:25:48.158Z,98206.38
2022-10-02T09:31:15.212Z,98203.03
2022-10-02T09:36:19.047Z,98199.69
2022-10-02T09:41:40.187Z,98192.34
2022-10-02T09:47:19.968Z,98202.38
2022-10-02T09:52:31.123Z,98204.69
2022-10-02T09:57:45.176Z,98213.94
2022-10-02T10:03:08.662Z,98223.41
2022-10-02T10:08:35.879Z,98238.44
2022-10-02T10:13:53.506Z,98238.72
2022-10-02T10:19:03.202Z,98233.13
2022-10-02T10:24:06.354Z,98248.28
2022-10-02T10:29:24.357Z,98238.97
2022-10-02T10:34:48.821Z,98214.59
2022-10-02T10:40:04.094Z,98239.13
2022-10-02T10:45:33.206Z,98236.19
2022-10-02T10:50:54.475Z,98257.16
2022-10-02T10:56:09.082Z,98259.22
2022-10-02T11:01:38.975Z,98253.84
2022-10-02T11:07:03.021Z,98256.31
2022-10-02T11:12:17.561Z,98266.59
2022-10-02T11:17:39.875Z,98269.66
2022-10-02T11:23:11.541Z,98262.50
2022-10-02T11:28:32.958Z,98278.50
2022-10-02T11:34:08.846Z,98278.19
2022-10-02T11:39:15.274Z,98255.63
2022-10-02T11:44:38.874Z,98261.25
2022-10-02T11:50:12.608Z,98275.94
2022-10-02T11:55:22.290Z,98260.41
2022-10-02T12:00:58.865Z,98267.94
2022-10-02T12:06:20.163Z,98266.91
2022-10-02T12:11:39.686Z,98245.59
2022-10-02T12:17:19.515Z,98251.38
2022-10-02T12:22:57.206Z,98259.53
2022-10-02T12:28:29.523Z,98257.97
2022-10-02T12:34:01.263Z,98264.03
2022-10-02T12:39:32.717Z,98268.97
2022-10-02T12:44:47.724Z,98257.53
2022-10-02T12:50:25.796Z,98275.31
2022-10-02T12:56:04.788Z,98277.22
2022-10-02T13:01:44.575Z,98286.41
2022-10-02T13:07:16.118Z,98288.25
2022-10-02T13:12:27.331Z,98283.09
2022-10-02T13:17:39.148Z,98273.84
2022-10-02T13:23:15.313Z,98289.28
2022-10-02T13:28:23.748Z,98286.16
2022-10-02T13:34:08.130Z,98274.19
2022-10-02T13:39:28.939Z,98272.72
2022-10-02T13:44:51.087Z,98283.03
2022-10-02T13:50:16.717Z,98271.94
2022-10-02T13:55:43.023Z,98273.75
2022-10-02T14:00:54.480Z,98280.13
2022-10-02T14:06:13.107Z,98281.34
2022-10-02T14:11:43.438Z,98287.28
2022-10-02T14:17:19.710Z,98283.94
2022-10-02T14:22:25.158Z,98290.97
2022-10-02T14:27:48.652Z,98282.06
2022-10-02T14:33:11.534Z,98280.22
2022-10-02T14:39:04.020Z,98266.81
2022-10-02T14:44:07.385Z,98265.59
2022-10-02T14:49:32.575Z,98269.34
2022-10-02T14:55:01.958Z,98261.44
2022-10-02T15:00:24.547Z,98284.03
2022-10-02T15:05:41.952Z,98285.50
2022-10-02T15:10:49.258Z,98292.53
2022-10-02T15:16:36.875Z,98286.53
2022-10-02T15:21:41.866Z,98301.13
2022-10-02T15:27:31.372Z,98304.25
2022-10-02T15:32:55.845Z,98302.47
2022-10-02T15:38:12.305Z,98325.91
2022-10-02T15:43:17.359Z,98345.31
2022-10-02T15:48:44.130Z,98332.94
2022-10-02T15:53:51.444Z,98328.97
2022-10-02T15:58:59.420Z,98307.09
2022-10-02T16:04:18.280Z,98315.47
2022-10-02T16:10:11.590Z,98335.22
2022-10-02T16:15:29.606Z,98342.34
2022-10-02T16:21:09.984Z,98337.88
2022-10-02T16:26:43.200Z,98345.63
2022-10-02T16:31:48.641Z,98340.16
2022-10-02T16:36:53.823Z,98351.09
2022-10-02T16:41:59.905Z,98348.03
2022-10-02T16:47:04.965Z,98349.13
2022-10-02T16:52:30.292Z,98361.16
2022-10-02T16:57:51.961Z,98379.13
2022-10-02T17:03:33.661Z,98415.66
2022-10-02T17:08:47.855Z,98421.16
2022-10-02T17:14:18.551Z,98427.69
2022-10-02T17:19:23.924Z,98420.94
2022-10-02T17:24:47.429Z,98421.25
2022-10-02T17:30:05.201Z,98441.22
2022-10-02T17:35:42.915Z,98437.28
2022-10-02T17:41:15.466Z,98443.41
2022-10-02T17:46:56.409Z,98453.47
2022-10-02T17:52:26.849Z,98465.28
2022-10-02T17:57:46.905Z,98477.41
2022-10-02T18:03:23.216Z,98479.94
2022-10-02T18:08:33.758Z,98488.59
2022-10-02T18:13:49.420Z,98478.50
2022-10-02T18:19:22.316Z,98476.63
2022-10-02T18:24:39.746Z,98482.09
2022-10-02T18:30:16.423Z,98480.00
2022-10-02T18:35:40.548Z,98492.59
2022-10-02T18:41:14.826Z,98472.78
2022-10-02T18:46:26.509Z,98500.09
2022-10-02T18:52:06.098Z,98517.22
2022-10-02T18:57:08.450Z,98523.44
2022-10-02T19:02:29.416Z,98537.03
2022-10-02T19:07:42.680Z,98539.75
2022-10-02T19:12:45.159Z,98520.41
2022-10-02T19:17:59.149Z,98515.78
2022-10-02T19:23:02.834Z,98530.44
2022-10-02T19:28:06.573Z,98528.50
2022-10-02T19:33:09.644Z,98515.56
2022-10-02T19:38:27.733Z,98525.78
2022-10-02T19:43:33.759Z,98537.03
2022-10-02T19:48:36.395Z,98549.56
2022-10-02T19:53:45.222Z,98569.28
2022-10-02T19:58:50.877Z,98581.91
2022-10-02T20:03:57.611Z,98589.75
2022-10-02T20:09:17.871Z,98590.00
2022-10-02T20:14:24.045Z,98593.09
2022-10-02T20:19:31.178Z,98601.41
2022-10-02T20:24:43.970Z,98605.28
2022-10-02T20:29:53.476Z,98619.47
2022-10-02T20:35:11.025Z,98626.72
2022-10-02T20:40:19.186Z,98638.53
2022-10-02T20:45:25.501Z,98652.78
2022-10-02T20:50:28.007Z,98655.53
2022-10-02T20:55:33.379Z,98659.97
2022-10-02T21:01:00.295Z,98677.59
2022-10-02T21:06:35.989Z,98680.00
2022-10-02T21:12:03.194Z,98683.97
2022-10-02T21:17:30.630Z,98696.84
2022-10-02T21:22:43.186Z,98709.63
2022-10-02T21:27:48.624Z,98710.31
2022-10-02T21:33:12.816Z,98717.91
2022-10-02T21:38:33.556Z,98726.41
2022-10-02T21:43:44.940Z,98733.25
2022-10-02T21:49:18.308Z,98733.44
2022-10-02T21:54:58.404Z,98729.84
2022-10-02T22:00:21.936Z,98743.03
2022-10-02T22:06:05.579Z,98741.97
2022-10-02T22:11:13.101Z,98738.41
2022-10-02T22:16:30.763Z,98745.22
2022-10-02T22:22:13.430Z,98746.84
2022-10-02T22:27:15.858Z,98751.72
2022-10-02T22:32:55.936Z,98761.31
2022-10-02T22:38:14.340Z,98770.94
2022-10-02T22:43:28.430Z,98764.63
2022-10-02T22:48:46.027Z,98773.44
2022-10-02T22:54:11.141Z,98773.94
2022-10-02T22:59:19.182Z,98767.63
2022-10-02T23:04:36.679Z,98784.88
2022-10-02T23:10:02.805Z,98783.88
2022-10-02T23:15:26.166Z,98788.66
2022-10-02T23:21:02.773Z,98782.88
2022-10-02T23:26:39.968Z,98785.66
2022-10-02T23:32:15.071Z,98778.19
2022-10-02T23:37:27.878Z,98791.16
2022-10-02T23:42:47.866Z,98792.50
2022-10-02T23:48:11.670Z,98796.28
2022-10-02T23:53:42.033Z,98796.28
2022-10-02T23:58:53.221Z,98788.19
